Time;durP1;ratioP1;P1;durP2;ratioP2;P2;SDS_P1;SDS_P2;PMS_P1;PMS_P2;Temp;Humidity;BMP_temperature;BMP_pressure;BME280_temperature;BME280_humidity;BME280_pressure;Samples;Min_cycle;Max_cycle;Signal;HPM_P1;HPM_P2
2020/12/19 00:02:04;;;;;;;4.83;2.23;;;11.90;99.90;;;;;;5096468;28;20089;-66
2020/12/19 00:04:30;;;;;;;7.47;2.50;;;11.90;99.90;;;;;;5079235;28;20106;-67
2020/12/19 00:06:55;;;;;;;5.47;1.87;;;11.90;99.90;;;;;;5096525;28;20402;-66
2020/12/19 00:09:21;;;;;;;7.60;2.73;;;11.90;99.90;;;;;;5096133;28;20032;-67
2020/12/19 00:11:47;;;;;;;9.47;2.80;;;11.90;99.90;;;;;;5096751;28;20028;-66
2020/12/19 00:14:12;;;;;;;9.10;2.87;;;11.90;99.90;;;;;;5078267;28;20031;-67
2020/12/19 00:16:38;;;;;;;12.00;3.00;;;11.90;99.90;;;;;;5096345;28;20517;-66
2020/12/19 00:19:05;;;;;;;5.23;1.50;;;11.80;99.90;;;;;;5095470;28;20086;-67
2020/12/19 00:21:35;;;;;;;5.80;2.00;;;11.90;99.90;;;;;;5086422;28;20114;-67
2020/12/19 00:24:02;;;;;;;7.43;3.10;;;11.90;99.90;;;;;;5096483;28;20092;-67
2020/12/19 00:26:42;;;;;;;5.57;2.17;;;11.90;99.90;;;;;;5095969;28;20107;-67
2020/12/19 00:29:10;;;;;;;3.87;1.80;;;11.90;99.90;;;;;;5096147;28;20020;-66
2020/12/19 00:31:37;;;;;;;6.03;2.40;;;11.90;99.90;;;;;;5096528;28;20438;-66
2020/12/19 00:34:04;;;;;;;9.30;2.47;;;11.90;99.90;;;;;;5077749;28;20027;-67
2020/12/19 00:36:29;;;;;;;6.23;2.40;;;11.90;99.90;;;;;;5096299;28;20437;-67
2020/12/19 00:38:55;;;;;;;5.63;1.87;;;11.90;99.90;;;;;;5096081;28;20020;-67
2020/12/19 00:41:23;;;;;;;7.23;2.50;;;11.90;99.90;;;;;;5095907;28;20078;-68
2020/12/19 00:43:49;;;;;;;7.60;3.23;;;11.80;99.90;;;;;;5095918;28;20044;-68
2020/12/19 00:46:19;;;;;;;11.43;2.70;;;11.80;99.90;;;;;;5095583;28;20032;-69
2020/12/19 00:48:45;;;;;;;16.93;2.90;;;11.70;99.90;;;;;;5095943;28;20031;-69
2020/12/19 00:51:19;;;;;;;6.60;3.43;;;11.80;99.90;;;;;;5095591;28;20103;-69
2020/12/19 00:53:49;;;;;;;3.93;2.30;;;11.80;99.90;;;;;;5095714;28;20055;-69
2020/12/19 00:56:20;;;;;;;5.93;2.83;;;11.80;99.90;;;;;;5078130;28;20024;-68
2020/12/19 00:58:47;;;;;;;5.90;2.13;;;11.80;99.90;;;;;;5096164;28;20016;-69
2020/12/19 01:01:19;;;;;;;10.10;2.97;;;11.80;99.90;;;;;;5099753;28;20035;-69
2020/12/19 01:03:46;;;;;;;12.37;3.83;;;11.80;99.90;;;;;;5082005;28;20127;-69
2020/12/19 01:06:16;;;;;;;12.13;3.53;;;11.80;99.90;;;;;;5082170;28;20028;-69
2020/12/19 01:08:46;;;;;;;7.50;2.87;;;11.80;99.90;;;;;;5100002;28;20391;-68
2020/12/19 01:11:14;;;;;;;7.90;2.43;;;11.80;99.90;;;;;;5099928;28;20020;-68
2020/12/19 01:13:40;;;;;;;8.77;2.50;;;11.80;99.90;;;;;;5099728;28;20046;-68
2020/12/19 01:16:05;;;;;;;10.60;2.80;;;11.80;99.90;;;;;;5099912;28;20024;-68
2020/12/19 01:18:38;;;;;;;13.23;2.70;;;11.80;99.90;;;;;;5099795;28;20020;-69
2020/12/19 01:21:03;;;;;;;7.15;2.95;;;11.80;99.90;;;;;;5058729;28;20020;-69
2020/12/19 01:23:29;;;;;;;7.00;3.03;;;11.80;99.90;;;;;;5081568;28;20028;-64
2020/12/19 01:25:55;;;;;;;9.80;2.80;;;11.80;99.90;;;;;;5105501;28;20457;-64
2020/12/19 01:28:20;;;;;;;12.83;3.40;;;11.70;99.90;;;;;;5120000;28;20083;-65
2020/12/19 01:30:46;;;;;;;7.77;3.00;;;11.70;99.90;;;;;;5119595;28;20038;-64
2020/12/19 01:33:12;;;;;;;7.17;2.77;;;11.60;99.90;;;;;;5101547;28;20499;-65
2020/12/19 01:35:37;;;;;;;7.33;1.83;;;11.70;99.90;;;;;;5119203;28;20055;-64
2020/12/19 01:38:03;;;;;;;9.70;2.10;;;11.60;99.90;;;;;;5119588;28;20088;-64
2020/12/19 01:40:29;;;;;;;5.23;1.73;;;11.70;99.90;;;;;;5119637;28;20054;-65
2020/12/19 01:42:54;;;;;;;5.30;2.03;;;11.70;99.90;;;;;;5119240;28;20043;-64
2020/12/19 01:45:20;;;;;;;5.33;2.57;;;11.70;99.90;;;;;;5119763;28;20020;-65
2020/12/19 01:47:46;;;;;;;9.63;2.90;;;11.70;99.90;;;;;;5119264;28;20384;-66
2020/12/19 01:50:12;;;;;;;9.53;1.97;;;11.70;99.90;;;;;;5119451;28;20028;-64
2020/12/19 01:52:39;;;;;;;8.40;1.97;;;11.60;99.90;;;;;;5118916;28;20134;-66
2020/12/19 01:55:05;;;;;;;6.60;2.23;;;11.60;99.90;;;;;;5119783;28;20030;-66
2020/12/19 01:57:32;;;;;;;5.07;2.30;;;11.50;99.90;;;;;;5118981;28;20028;-67
2020/12/19 01:59:59;;;;;;;4.97;1.87;;;11.50;99.90;;;;;;5119512;28;20015;-67
2020/12/19 02:02:25;;;;;;;4.47;1.47;;;11.50;99.90;;;;;;5118916;28;20446;-66
2020/12/19 02:04:53;;;;;;;4.90;1.57;;;11.60;99.90;;;;;;5118783;28;20034;-67
2020/12/19 02:07:19;;;;;;;4.97;1.87;;;11.60;99.90;;;;;;5119183;28;20032;-68
2020/12/19 02:09:45;;;;;;;7.17;1.87;;;11.60;99.90;;;;;;5118572;28;20028;-68
2020/12/19 02:12:11;;;;;;;2.70;1.23;;;11.60;99.90;;;;;;5118484;28;20023;-67
2020/12/19 02:14:40;;;;;;;3.87;1.20;;;11.60;99.90;;;;;;5118952;28;20024;-65
2020/12/19 02:17:09;;;;;;;7.90;2.43;;;11.70;99.90;;;;;;5118506;28;20430;-66
2020/12/19 02:19:36;;;;;;;5.97;2.27;;;11.80;99.90;;;;;;5117219;28;20079;-66
2020/12/19 02:22:07;;;;;;;11.47;1.83;;;11.80;99.90;;;;;;5098127;28;20452;-64
2020/12/19 02:24:33;;;;;;;5.10;2.00;;;11.80;99.90;;;;;;5080421;28;20028;-66
2020/12/19 02:27:00;;;;;;;9.33;2.47;;;11.70;99.90;;;;;;5097763;28;20035;-65
2020/12/19 02:29:28;;;;;;;8.17;2.20;;;11.70;99.90;;;;;;5098462;28;20028;-66
2020/12/19 02:31:55;;;;;;;8.63;2.67;;;11.70;99.90;;;;;;5098226;28;20093;-66
2020/12/19 02:34:21;;;;;;;6.03;2.17;;;11.70;99.90;;;;;;5098301;28;20020;-67
2020/12/19 02:36:47;;;;;;;8.87;2.63;;;11.70;99.90;;;;;;5080347;28;20039;-66
2020/12/19 02:39:13;;;;;;;7.93;2.80;;;11.70;99.90;;;;;;5080280;28;20028;-67
2020/12/19 02:41:41;;;;;;;8.07;2.33;;;11.70;99.90;;;;;;5097902;28;20026;-67
2020/12/19 02:44:08;;;;;;;7.27;2.30;;;11.60;99.90;;;;;;5098412;28;20044;-68
2020/12/19 02:46:34;;;;;;;8.57;1.57;;;11.60;99.90;;;;;;5109232;28;20040;-68
2020/12/19 02:49:00;;;;;;;7.07;1.87;;;11.50;99.90;;;;;;5118061;28;20035;-68
2020/12/19 02:51:26;;;;;;;4.10;1.70;;;11.50;99.90;;;;;;5118697;28;20315;-69
2020/12/19 02:53:52;;;;;;;4.87;1.93;;;11.50;99.90;;;;;;5099865;28;20027;-68
2020/12/19 02:56:17;;;;;;;4.90;2.00;;;11.40;99.90;;;;;;5118304;28;20360;-67
2020/12/19 02:58:43;;;;;;;7.07;2.23;;;11.50;99.90;;;;;;5118005;28;20035;-67
2020/12/19 03:01:09;;;;;;;8.70;1.70;;;11.50;99.90;;;;;;5117583;28;20744;-68
2020/12/19 03:03:34;;;;;;;4.97;2.03;;;11.50;99.90;;;;;;5118401;28;20104;-67
2020/12/19 03:06:00;;;;;;;4.17;1.57;;;11.50;99.90;;;;;;5098350;28;20023;-67
2020/12/19 03:08:26;;;;;;;4.00;1.37;;;11.50;99.90;;;;;;5099647;28;20036;-68
2020/12/19 03:10:51;;;;;;;3.17;0.97;;;11.40;99.90;;;;;;5099833;28;20035;-67
2020/12/19 03:13:17;;;;;;;10.93;2.80;;;11.40;99.90;;;;;;5117761;28;20057;-68
2020/12/19 03:15:42;;;;;;;4.90;1.67;;;11.30;99.90;;;;;;5117758;28;20062;-66
2020/12/19 03:18:08;;;;;;;6.87;1.40;;;11.30;99.90;;;;;;5099422;28;20438;-67
2020/12/19 03:20:34;;;;;;;6.77;1.77;;;11.30;99.90;;;;;;5107784;28;20035;-67
2020/12/19 03:22:59;;;;;;;4.53;1.20;;;11.30;99.90;;;;;;5096923;28;20024;-67
2020/12/19 03:25:26;;;;;;;4.43;1.70;;;11.30;99.90;;;;;;5097494;28;20028;-67
2020/12/19 03:27:53;;;;;;;4.50;1.40;;;11.20;99.90;;;;;;5097853;28;20107;-66
2020/12/19 03:30:19;;;;;;;11.40;1.87;;;11.30;99.90;;;;;;5069208;28;20032;-67
2020/12/19 03:32:44;;;;;;;7.33;2.70;;;11.20;99.90;;;;;;5117113;28;20110;-68
2020/12/19 03:35:10;;;;;;;5.47;1.63;;;11.20;99.90;;;;;;5116882;28;20341;-68
2020/12/19 03:37:36;;;;;;;6.17;1.60;;;11.20;99.90;;;;;;5117384;28;20486;-66
2020/12/19 03:40:03;;;;;;;6.40;1.83;;;11.10;99.90;;;;;;5118372;28;20450;-66
2020/12/19 03:42:29;;;;;;;7.57;1.40;;;11.10;99.90;;;;;;5118289;28;20135;-66
2020/12/19 03:44:55;;;;;;;14.30;2.47;;;11.10;99.90;;;;;;5118497;28;20070;-67
2020/12/19 03:47:20;;;;;;;6.10;1.20;;;11.10;99.90;;;;;;5116833;28;20083;-66
2020/12/19 03:49:46;;;;;;;6.37;2.30;;;11.10;99.90;;;;;;5117219;28;20425;-66
2020/12/19 03:52:12;;;;;;;9.40;2.17;;;11.00;99.90;;;;;;5098801;28;20054;-67
2020/12/19 03:54:37;;;;;;;8.60;1.30;;;11.00;99.90;;;;;;5117228;28;20038;-67
2020/12/19 03:57:03;;;;;;;10.73;3.07;;;10.90;99.90;;;;;;5098776;28;20092;-66
2020/12/19 03:59:28;;;;;;;5.77;1.57;;;10.90;99.90;;;;;;5116714;28;20028;-66
2020/12/19 04:01:54;;;;;;;3.70;1.07;;;11.00;99.90;;;;;;5116721;28;20114;-66
2020/12/19 04:04:20;;;;;;;6.57;1.90;;;10.90;99.90;;;;;;5116944;28;20024;-66
2020/12/19 04:06:46;;;;;;;9.47;1.57;;;11.00;99.90;;;;;;5099050;28;20038;-65
2020/12/19 04:09:11;;;;;;;9.43;1.80;;;11.00;99.90;;;;;;5116045;28;20035;-68
2020/12/19 04:11:37;;;;;;;10.50;2.20;;;10.90;99.90;;;;;;5096964;28;20032;-66
2020/12/19 04:14:02;;;;;;;10.07;1.77;;;11.00;99.90;;;;;;5096010;28;20032;-65
2020/12/19 04:16:28;;;;;;;9.33;2.30;;;11.00;99.90;;;;;;5096023;28;20098;-65
2020/12/19 04:18:54;;;;;;;5.43;2.20;;;11.00;99.90;;;;;;5095504;28;20423;-65
2020/12/19 04:21:19;;;;;;;6.90;2.13;;;10.90;99.90;;;;;;5083024;28;20093;-65
2020/12/19 04:23:45;;;;;;;11.20;1.83;;;11.00;99.90;;;;;;5096633;28;20090;-65
2020/12/19 04:26:10;;;;;;;10.93;1.87;;;11.00;99.90;;;;;;5096362;28;20089;-65
2020/12/19 04:28:36;;;;;;;8.40;2.27;;;10.90;99.90;;;;;;5096189;28;20449;-65
2020/12/19 04:31:02;;;;;;;11.00;2.00;;;10.90;99.90;;;;;;5095892;28;20032;-64
2020/12/19 04:33:27;;;;;;;10.67;2.17;;;11.00;99.90;;;;;;5078388;28;20039;-64
2020/12/19 04:35:53;;;;;;;6.33;1.60;;;10.90;99.90;;;;;;5077753;28;20024;-65
2020/12/19 04:38:19;;;;;;;9.40;1.97;;;10.90;99.90;;;;;;5095415;28;20035;-64
2020/12/19 04:40:45;;;;;;;12.43;1.93;;;10.90;99.90;;;;;;5096624;28;20028;-64
2020/12/19 04:43:18;;;;;;;9.60;2.20;;;10.90;99.90;;;;;;5095501;28;20446;-64
2020/12/19 04:45:44;;;;;;;11.15;2.45;;;11.00;99.90;;;;;;5095765;28;20158;-64
2020/12/19 04:48:10;;;;;;;7.13;2.00;;;11.00;99.90;;;;;;5095959;28;20036;-64
2020/12/19 04:50:40;;;;;;;7.93;2.30;;;11.00;99.90;;;;;;5077750;28;20024;-64
2020/12/19 04:53:19;;;;;;;10.30;2.67;;;11.00;99.90;;;;;;5096737;28;20422;-64
2020/12/19 04:55:45;;;;;;;20.93;2.70;;;10.90;99.90;;;;;;5103735;28;20093;-64
2020/12/19 04:58:13;;;;;;;5.73;1.77;;;10.90;99.90;;;;;;5116112;28;20043;-64
2020/12/19 05:00:40;;;;;;;6.60;2.07;;;10.80;99.90;;;;;;5116118;28;20027;-64
2020/12/19 05:03:06;;;;;;;5.93;1.80;;;10.80;99.90;;;;;;5097961;28;20027;-64
2020/12/19 05:05:44;;;;;;;9.97;2.83;;;10.70;99.90;;;;;;5115937;28;20422;-63
2020/12/19 05:08:10;;;;;;;9.07;2.00;;;10.80;99.90;;;;;;5116240;28;20038;-63
2020/12/19 05:10:37;;;;;;;14.33;2.90;;;10.70;99.90;;;;;;5115931;28;20055;-63
2020/12/19 05:13:03;;;;;;;7.70;2.17;;;10.70;99.90;;;;;;5116119;28;20084;-63
2020/12/19 05:15:29;;;;;;;12.07;2.63;;;10.70;99.90;;;;;;5115827;28;20096;-63
2020/12/19 05:17:56;;;;;;;10.30;2.43;;;10.60;99.90;;;;;;5097595;28;20062;-63
2020/12/19 05:20:29;;;;;;;8.50;1.83;;;10.60;99.90;;;;;;5107571;28;20385;-63
2020/12/19 05:22:56;;;;;;;7.57;1.35;;;10.60;99.90;;;;;;5095339;28;20024;-63
2020/12/19 05:25:24;;;;;;;12.70;1.87;;;10.60;99.90;;;;;;5096016;28;20046;-63
2020/12/19 05:27:50;;;;;;;15.27;2.67;;;10.50;99.90;;;;;;5095100;28;20024;-63
2020/12/19 05:30:19;;;;;;;12.63;2.27;;;10.50;99.90;;;;;;5077436;28;20032;-63
2020/12/19 05:32:50;;;;;;;17.40;3.40;;;10.50;99.90;;;;;;5095296;28;20017;-62
2020/12/19 05:35:21;;;;;;;9.20;1.70;;;10.40;99.90;;;;;;5096048;28;20056;-63
2020/12/19 05:38:04;;;;;;;10.17;2.40;;;10.30;99.90;;;;;;5094992;28;20028;-62
2020/12/19 05:40:31;;;;;;;8.73;2.10;;;10.30;99.90;;;;;;5096157;28;20184;-62
2020/12/19 05:42:57;;;;;;;11.90;2.70;;;10.30;99.90;;;;;;5095205;28;20081;-63
2020/12/19 05:45:28;;;;;;;13.90;2.93;;;10.30;99.90;;;;;;5095910;28;20089;-63
2020/12/19 05:47:54;;;;;;;11.57;2.57;;;10.30;99.90;;;;;;5080414;28;20035;-63
2020/12/19 05:50:21;;;;;;;13.80;2.53;;;10.30;99.90;;;;;;5099120;28;20051;-63
2020/12/19 05:52:47;;;;;;;15.73;2.60;;;10.30;99.90;;;;;;5098695;28;20185;-63
2020/12/19 05:55:15;;;;;;;12.43;3.50;;;10.30;99.90;;;;;;5080806;28;20020;-63
2020/12/19 05:57:41;;;;;;;9.43;2.83;;;10.40;99.90;;;;;;5098833;28;20036;-63
2020/12/19 06:00:10;;;;;;;13.57;3.60;;;10.40;99.90;;;;;;5098943;28;20024;-63
2020/12/19 06:02:36;;;;;;;8.73;1.97;;;10.30;99.90;;;;;;5098910;28;20016;-63
2020/12/19 06:05:05;;;;;;;11.77;3.40;;;10.30;99.90;;;;;;5098562;28;20103;-63
2020/12/19 06:07:39;;;;;;;11.03;3.30;;;10.40;99.90;;;;;;5099121;28;20028;-63
2020/12/19 06:10:10;;;;;;;15.53;3.40;;;10.40;99.90;;;;;;5098828;28;20133;-63
2020/12/19 06:13:07;;;;;;;13.43;3.90;;;10.40;99.90;;;;;;5098720;28;20020;-63
2020/12/19 06:15:53;;;;;;;8.33;2.00;;;10.40;99.90;;;;;;5098769;28;20020;-63
2020/12/19 06:18:41;;;;;;;7.63;2.73;;;10.40;99.90;;;;;;5098552;28;20016;-62
2020/12/19 06:21:08;;;;;;;12.63;3.23;;;10.40;99.90;;;;;;5103609;28;20433;-62
2020/12/19 06:23:35;;;;;;;5.13;2.10;;;10.50;99.90;;;;;;5098133;28;20411;-62
2020/12/19 06:26:01;;;;;;;11.70;2.90;;;10.40;99.90;;;;;;5098514;28;20016;-62
2020/12/19 06:28:39;;;;;;;13.17;3.00;;;10.40;99.90;;;;;;5099089;28;20039;-62
2020/12/19 06:31:06;;;;;;;9.57;1.87;;;10.40;99.90;;;;;;5106354;28;20067;-62
2020/12/19 06:33:36;;;;;;;13.37;2.27;;;10.40;99.90;;;;;;5119259;28;20517;-62
2020/12/19 06:36:04;;;;;;;20.17;2.87;;;10.40;99.90;;;;;;5100093;28;20030;-62
2020/12/19 06:38:38;;;;;;;17.37;2.83;;;10.30;99.90;;;;;;5118393;28;20030;-62
2020/12/19 06:41:03;;;;;;;19.73;4.43;;;10.30;99.90;;;;;;5118579;28;20069;-62
2020/12/19 06:43:29;;;;;;;11.33;1.83;;;10.20;99.90;;;;;;5099954;28;20388;-62
2020/12/19 06:45:54;;;;;;;14.30;2.10;;;10.20;99.90;;;;;;5099461;28;20050;-61
2020/12/19 06:48:34;;;;;;;11.07;2.77;;;10.20;99.90;;;;;;5100236;28;20326;-61
2020/12/19 06:51:01;;;;;;;16.53;2.00;;;10.20;99.90;;;;;;5118321;28;20089;-61
2020/12/19 06:53:28;;;;;;;22.07;3.33;;;10.20;99.90;;;;;;5118307;28;20031;-61
2020/12/19 06:55:54;;;;;;;17.27;2.43;;;10.10;99.90;;;;;;5118021;28;20172;-61
2020/12/19 06:58:30;;;;;;;10.00;3.10;;;10.00;99.90;;;;;;5117791;28;20118;-61
2020/12/19 07:00:57;;;;;;;11.33;2.10;;;10.00;99.90;;;;;;5118296;28;20068;-61
2020/12/19 07:03:36;;;;;;;13.03;3.10;;;10.00;99.90;;;;;;5118291;28;20031;-62
2020/12/19 07:06:13;;;;;;;8.37;2.57;;;10.00;99.90;;;;;;5118225;28;20015;-61
2020/12/19 07:08:39;;;;;;;7.10;2.03;;;10.00;99.90;;;;;;5118517;28;20038;-60
2020/12/19 07:11:11;;;;;;;13.33;4.17;;;10.00;99.90;;;;;;5118104;28;20063;-61
2020/12/19 07:13:51;;;;;;;6.60;1.43;;;10.00;99.90;;;;;;5117520;28;20434;-61
2020/12/19 07:16:43;;;;;;;3.93;1.47;;;9.90;99.90;;;;;;5117638;28;20027;-61
2020/12/19 07:19:26;;;;;;;4.57;1.67;;;9.90;99.90;;;;;;5099057;28;20028;-61
2020/12/19 07:21:54;;;;;;;9.05;1.77;;;9.90;99.90;;;;;;5097465;28;20031;-61
2020/12/19 07:24:20;;;;;;;7.90;2.50;;;9.90;99.90;;;;;;5097498;28;20085;-61
2020/12/19 07:26:46;;;;;;;9.07;2.03;;;9.80;99.90;;;;;;5096858;28;20032;-60
2020/12/19 07:29:23;;;;;;;6.47;1.63;;;9.70;99.90;;;;;;5079003;28;20046;-60
2020/12/19 07:31:53;;;;;;;4.47;1.37;;;9.60;99.90;;;;;;5097586;28;20024;-60
2020/12/19 07:34:21;;;;;;;7.90;1.77;;;9.60;99.90;;;;;;5096885;28;20034;-60
2020/12/19 07:36:48;;;;;;;5.70;1.30;;;9.50;99.90;;;;;;5096909;28;20025;-60
2020/12/19 07:39:15;;;;;;;7.00;1.47;;;9.50;99.90;;;;;;5096857;28;20032;-60
2020/12/19 07:41:43;;;;;;;6.77;1.00;;;9.50;99.90;;;;;;5097253;28;20016;-60
2020/12/19 07:44:19;;;;;;;6.13;1.10;;;9.40;99.90;;;;;;5096754;28;20059;-60
2020/12/19 07:46:48;;;;;;;5.77;1.47;;;9.40;99.90;;;;;;5097087;28;20024;-60
2020/12/19 07:49:25;;;;;;;4.03;0.90;;;9.50;99.90;;;;;;5096626;28;20291;-60
2020/12/19 07:52:12;;;;;;;9.53;1.77;;;9.50;99.90;;;;;;5096771;28;20098;-60
2020/12/19 07:54:39;;;;;;;5.70;1.13;;;9.40;99.90;;;;;;5103935;28;20445;-60
2020/12/19 07:57:05;;;;;;;7.20;1.70;;;9.40;99.90;;;;;;5116684;28;20027;-60
2020/12/19 07:59:33;;;;;;;8.83;2.13;;;9.30;99.90;;;;;;5081785;28;20054;-60
2020/12/19 08:02:03;;;;;;;7.63;2.07;;;9.20;99.90;;;;;;5117137;28;20367;-60
2020/12/19 08:04:33;;;;;;;7.93;2.50;;;9.20;99.90;;;;;;5116939;28;20027;-60
2020/12/19 08:07:00;;;;;;;5.47;1.33;;;9.20;99.90;;;;;;5116992;28;20038;-60
2020/12/19 08:09:26;;;;;;;7.10;1.53;;;9.10;99.90;;;;;;5117531;28;20986;-60
2020/12/19 08:11:53;;;;;;;6.30;2.13;;;9.00;99.90;;;;;;5117338;28;20028;-60
2020/12/19 08:14:20;;;;;;;13.20;2.03;;;9.00;99.90;;;;;;5116917;28;20019;-60
2020/12/19 08:16:47;;;;;;;5.27;2.20;;;9.00;99.90;;;;;;5117110;28;20034;-60
2020/12/19 08:19:36;;;;;;;5.97;2.17;;;9.00;99.90;;;;;;5116764;28;20329;-60
2020/12/19 08:22:05;;;;;;;9.97;3.17;;;9.00;99.90;;;;;;5096835;28;20027;-60
2020/12/19 08:24:31;;;;;;;10.37;1.80;;;9.00;99.90;;;;;;5096372;28;20024;-62
2020/12/19 08:27:35;;;;;;;6.67;1.70;;;9.00;99.90;;;;;;5096081;28;20028;-60
2020/12/19 08:30:13;;;;;;;8.83;1.60;;;9.00;99.90;;;;;;5096103;28;20020;-59
2020/12/19 08:32:50;;;;;;;5.73;1.87;;;8.90;99.90;;;;;;5096571;28;20492;-60
2020/12/19 08:35:29;;;;;;;5.53;1.93;;;9.00;99.90;;;;;;5095798;28;20081;-60
2020/12/19 08:38:19;;;;;;;6.50;3.00;;;9.10;99.90;;;;;;5096012;28;20051;-60
2020/12/19 08:40:47;;;;;;;10.67;1.90;;;9.10;99.90;;;;;;5104543;28;20020;-60
2020/12/19 08:43:15;;;;;;;11.50;2.07;;;9.10;99.90;;;;;;5116227;28;20365;-61
2020/12/19 08:45:42;;;;;;;13.70;4.40;;;9.10;99.90;;;;;;5116215;28;20098;-60
2020/12/19 08:48:17;;;;;;;10.40;3.53;;;9.20;99.90;;;;;;5116234;28;20020;-61
2020/12/19 08:50:43;;;;;;;12.80;2.93;;;9.10;99.90;;;;;;5116358;28;20063;-61
2020/12/19 08:53:17;;;;;;;13.00;2.63;;;9.10;99.90;;;;;;5116095;28;20063;-60
2020/12/19 08:55:44;;;;;;;9.07;2.00;;;9.10;99.90;;;;;;5116397;28;20092;-60
2020/12/19 08:58:23;;;;;;;10.40;3.03;;;9.30;99.90;;;;;;5098249;28;20080;-61
2020/12/19 09:00:49;;;;;;;18.37;3.13;;;9.30;99.90;;;;;;5115821;28;20030;-66
2020/12/19 09:03:15;;;;;;;9.87;3.50;;;9.30;99.90;;;;;;5116058;28;20020;-68
2020/12/19 09:05:45;;;;;;;14.40;2.90;;;9.50;99.90;;;;;;5116016;28;20031;-67
2020/12/19 09:08:12;;;;;;;9.80;3.37;;;9.50;99.90;;;;;;5116583;28;20330;-66
2020/12/19 09:10:39;;;;;;;16.47;4.17;;;9.50;99.90;;;;;;5116233;28;20438;-66
2020/12/19 09:13:12;;;;;;;11.23;2.37;;;9.60;99.90;;;;;;5116209;28;20028;-66
2020/12/19 09:15:39;;;;;;;11.50;4.07;;;9.60;99.90;;;;;;5116133;28;20019;-65
2020/12/19 09:18:22;;;;;;;10.47;3.10;;;9.70;99.90;;;;;;5115904;28;20058;-66
2020/12/19 09:20:56;;;;;;;17.40;3.00;;;9.70;99.90;;;;;;5105394;28;20372;-65
2020/12/19 09:23:24;;;;;;;10.87;3.03;;;9.70;99.90;;;;;;5100041;28;20055;-66
2020/12/19 09:25:50;;;;;;;12.27;2.57;;;9.80;99.90;;;;;;5099213;28;20072;-66
2020/12/19 09:28:16;;;;;;;13.10;3.67;;;9.90;99.90;;;;;;5099761;28;20426;-66
2020/12/19 09:30:41;;;;;;;14.20;3.03;;;9.90;99.90;;;;;;5108984;28;20141;-67
2020/12/19 09:33:08;;;;;;;8.47;2.50;;;9.90;99.90;;;;;;5117690;28;20031;-67
2020/12/19 09:35:34;;;;;;;16.80;4.90;;;10.00;99.90;;;;;;5108920;28;20126;-67
2020/12/19 09:37:59;;;;;;;12.27;2.93;;;10.10;99.90;;;;;;5099750;28;20101;-67
2020/12/19 09:40:25;;;;;;;9.40;2.63;;;10.40;99.90;;;;;;5107361;28;20430;-67
2020/12/19 09:42:51;;;;;;;13.80;4.23;;;10.50;99.90;;;;;;5117351;28;20447;-65
2020/12/19 09:45:17;;;;;;;16.00;3.63;;;10.50;99.90;;;;;;5118229;28;20084;-67
2020/12/19 09:47:43;;;;;;;19.17;2.93;;;10.50;99.90;;;;;;5106222;28;20319;-68
2020/12/19 09:50:10;;;;;;;9.20;3.43;;;10.40;99.90;;;;;;5098762;28;20032;-68
2020/12/19 09:52:37;;;;;;;11.87;2.27;;;10.40;99.90;;;;;;5099029;28;20044;-67
2020/12/19 09:55:05;;;;;;;8.23;1.97;;;10.30;99.90;;;;;;5085953;28;20072;-67
2020/12/19 09:57:31;;;;;;;7.13;2.20;;;10.20;99.90;;;;;;5098208;28;20073;-66
2020/12/19 09:59:57;;;;;;;10.70;2.47;;;10.20;99.90;;;;;;5098113;28;20032;-67
2020/12/19 10:02:22;;;;;;;8.77;1.50;;;10.20;99.90;;;;;;5108237;28;20084;-67
2020/12/19 10:04:48;;;;;;;5.47;1.53;;;10.20;99.90;;;;;;5117840;28;20055;-66
2020/12/19 10:07:14;;;;;;;5.43;1.27;;;10.10;99.90;;;;;;5100008;28;20032;-67
2020/12/19 10:09:39;;;;;;;5.40;1.80;;;10.10;99.90;;;;;;5112857;28;20065;-66
2020/12/19 10:12:05;;;;;;;8.27;1.93;;;10.10;99.90;;;;;;5101409;28;20054;-66
2020/12/19 10:14:31;;;;;;;3.80;1.23;;;10.10;99.90;;;;;;5117824;28;20063;-66
2020/12/19 10:16:56;;;;;;;6.47;2.03;;;10.10;99.90;;;;;;5118030;28;20079;-66
2020/12/19 10:19:22;;;;;;;5.73;2.43;;;10.20;99.90;;;;;;5108550;28;20146;-66
2020/12/19 10:21:48;;;;;;;5.90;1.83;;;10.20;99.90;;;;;;5097094;28;20038;-66
2020/12/19 10:24:13;;;;;;;5.97;2.73;;;10.20;99.90;;;;;;5103018;28;20094;-65
2020/12/19 10:26:39;;;;;;;11.27;4.10;;;10.30;99.90;;;;;;5107447;28;20036;-65
2020/12/19 10:29:05;;;;;;;9.97;1.77;;;10.30;99.90;;;;;;5104975;28;20050;-64
2020/12/19 10:31:30;;;;;;;7.37;1.40;;;10.30;99.90;;;;;;5098072;28;20455;-65
2020/12/19 10:33:57;;;;;;;10.90;2.60;;;10.30;99.90;;;;;;5079422;28;20035;-65
2020/12/19 10:36:22;;;;;;;5.73;1.60;;;10.30;99.90;;;;;;5098140;28;20024;-65
2020/12/19 10:38:48;;;;;;;8.70;2.30;;;10.50;99.90;;;;;;5098066;28;20032;-65
2020/12/19 10:41:14;;;;;;;6.83;2.03;;;10.60;99.90;;;;;;5098333;28;20027;-67
2020/12/19 10:43:41;;;;;;;8.63;2.80;;;10.90;99.90;;;;;;5079549;28;20047;-66
2020/12/19 10:46:08;;;;;;;7.90;2.77;;;11.50;99.90;;;;;;5080108;28;20034;-66
2020/12/19 10:48:33;;;;;;;8.87;2.43;;;11.90;99.90;;;;;;5098207;28;20024;-65
2020/12/19 10:50:59;;;;;;;12.67;2.73;;;12.00;99.90;;;;;;5097262;28;20110;-64
2020/12/19 10:53:25;;;;;;;7.20;1.67;;;12.20;99.90;;;;;;5079013;28;20036;-64
2020/12/19 10:55:51;;;;;;;5.50;1.30;;;12.20;99.90;;;;;;5079564;28;20028;-64
2020/12/19 10:58:17;;;;;;;6.50;1.60;;;12.10;99.90;;;;;;5097386;28;20031;-64
2020/12/19 11:00:43;;;;;;;6.17;2.43;;;12.10;99.90;;;;;;5097502;28;20028;-65
2020/12/19 11:03:09;;;;;;;6.27;1.80;;;12.20;99.90;;;;;;5096763;28;20023;-65
2020/12/19 11:05:41;;;;;;;11.07;3.03;;;12.30;99.90;;;;;;5111481;28;20038;-65
2020/12/19 11:08:08;;;;;;;10.73;3.33;;;12.40;99.90;;;;;;5116831;28;20019;-65
2020/12/19 11:10:34;;;;;;;7.47;2.33;;;12.40;99.90;;;;;;5113283;28;20020;-64
2020/12/19 11:13:05;;;;;;;8.17;2.13;;;12.60;99.90;;;;;;5104780;28;20027;-64
2020/12/19 11:15:31;;;;;;;9.67;2.40;;;12.50;99.90;;;;;;5115656;28;20035;-63
2020/12/19 11:17:57;;;;;;;6.30;1.90;;;12.50;99.90;;;;;;5115290;28;20310;-63
2020/12/19 11:20:23;;;;;;;7.63;1.60;;;12.40;99.90;;;;;;5111067;28;20012;-64
2020/12/19 11:22:49;;;;;;;7.30;1.80;;;12.50;99.90;;;;;;5116858;28;20030;-63
2020/12/19 11:25:15;;;;;;;6.63;2.70;;;12.50;99.90;;;;;;5111339;28;20019;-63
2020/12/19 11:27:41;;;;;;;8.80;2.20;;;12.50;99.90;;;;;;5079460;28;20349;-63
2020/12/19 11:30:07;;;;;;;7.20;2.33;;;12.50;99.90;;;;;;5079234;28;20028;-63
2020/12/19 11:32:33;;;;;;;6.00;2.27;;;12.50;99.90;;;;;;5089860;28;20393;-64
2020/12/19 11:34:58;;;;;;;4.87;1.53;;;12.40;99.90;;;;;;5115585;28;20051;-64
2020/12/19 11:37:25;;;;;;;7.47;2.23;;;12.40;99.90;;;;;;5109731;28;20027;-64
2020/12/19 11:39:51;;;;;;;3.87;1.70;;;12.20;99.90;;;;;;5115295;28;20031;-63
2020/12/19 11:42:17;;;;;;;12.00;1.90;;;12.00;99.90;;;;;;5114459;28;20335;-64
2020/12/19 11:44:43;;;;;;;12.20;2.27;;;11.90;99.90;;;;;;5097216;28;20048;-64
2020/12/19 11:47:08;;;;;;;8.50;3.87;;;11.80;99.90;;;;;;5107880;28;20038;-65
2020/12/19 11:49:34;;;;;;;7.57;2.23;;;11.80;99.90;;;;;;5109958;28;20042;-67
2020/12/19 11:52:00;;;;;;;10.03;3.53;;;11.80;99.90;;;;;;5110458;28;20040;-67
2020/12/19 11:54:26;;;;;;;8.13;2.70;;;11.70;99.90;;;;;;5111001;28;20042;-66
2020/12/19 11:56:52;;;;;;;8.80;2.60;;;11.70;99.90;;;;;;5108838;28;20042;-66
2020/12/19 11:59:18;;;;;;;12.40;2.00;;;11.70;99.90;;;;;;5097789;28;20027;-66
2020/12/19 12:01:43;;;;;;;11.83;2.93;;;11.90;99.90;;;;;;5116448;28;20054;-67
2020/12/19 12:04:09;;;;;;;7.90;1.87;;;12.00;99.90;;;;;;5115934;28;20161;-67
2020/12/19 12:06:35;;;;;;;8.90;1.90;;;11.90;99.90;;;;;;5113506;28;20220;-67
2020/12/19 12:09:03;;;;;;;12.73;2.73;;;11.80;99.90;;;;;;5116109;28;20069;-66
2020/12/19 12:11:30;;;;;;;6.67;1.87;;;11.80;99.90;;;;;;5113500;28;20050;-64
2020/12/19 12:13:56;;;;;;;8.83;1.80;;;11.70;99.90;;;;;;5115484;28;20046;-66
2020/12/19 12:16:26;;;;;;;7.07;2.17;;;11.80;99.90;;;;;;5096992;28;20031;-65
2020/12/19 12:18:52;;;;;;;7.60;2.00;;;11.70;99.90;;;;;;5109122;28;20032;-66
2020/12/19 12:21:18;;;;;;;9.07;2.23;;;11.70;99.90;;;;;;5110215;28;20020;-65
2020/12/19 12:23:45;;;;;;;6.90;2.03;;;11.70;99.90;;;;;;5112512;28;20024;-65
2020/12/19 12:26:11;;;;;;;13.53;3.27;;;11.80;99.90;;;;;;5106549;28;20032;-63
2020/12/19 12:28:37;;;;;;;6.53;2.50;;;11.60;99.90;;;;;;5111219;28;20419;-65
2020/12/19 12:31:03;;;;;;;11.80;3.70;;;11.70;99.90;;;;;;5109107;28;20118;-66
2020/12/19 12:33:28;;;;;;;13.87;3.07;;;11.70;99.90;;;;;;5095404;28;20035;-64
2020/12/19 12:35:54;;;;;;;12.97;2.40;;;11.60;99.90;;;;;;5115042;28;20039;-64
2020/12/19 12:38:20;;;;;;;9.67;2.77;;;11.60;99.90;;;;;;5115554;28;20445;-64
2020/12/19 12:40:45;;;;;;;6.70;2.03;;;11.70;99.90;;;;;;5097428;28;20038;-63
2020/12/19 12:43:11;;;;;;;6.93;2.00;;;11.60;99.90;;;;;;5096714;28;20462;-64
2020/12/19 12:45:37;;;;;;;10.47;2.80;;;11.60;99.90;;;;;;5113644;22;20131;-65
2020/12/19 12:48:03;;;;;;;11.03;2.77;;;11.60;99.90;;;;;;5100341;28;20047;-65
2020/12/19 12:50:28;;;;;;;9.40;2.27;;;11.70;99.90;;;;;;5095254;28;20032;-66